Time;durP1;ratioP1;P1;durP2;ratioP2;P2;SDS_P1;SDS_P2;PMS_P1;PMS_P2;Temp;Humidity;BMP_temperature;BMP_pressure;BME280_temperature;BME280_humidity;BME280_pressure;Samples;Min_cycle;Max_cycle;Signal;HPM_P1;HPM_P2
2023/05/12 00:01:54;;;;;;;12.30;7.80;;;;;;;10.17;57.34;101359.99;107947;1257;72958;-92
2023/05/12 00:04:21;;;;;;;9.40;7.30;;;;;;;9.99;57.71;101361.55;107911;1261;71161;-92
2023/05/12 00:06:50;;;;;;;10.70;7.30;;;;;;;9.91;57.80;101359.54;108184;1257;73930;-91
2023/05/12 00:09:18;;;;;;;9.80;7.70;;;;;;;9.84;57.98;101361.31;108303;1257;60508;-88
2023/05/12 00:11:47;;;;;;;9.70;6.90;;;;;;;9.80;58.03;101359.66;108236;1257;60940;-90
2023/05/12 00:14:14;;;;;;;9.80;7.10;;;;;;;9.74;58.17;101360.27;108234;1257;73982;-90
2023/05/12 00:16:42;;;;;;;11.50;7.20;;;;;;;9.67;58.43;101360.74;108267;1257;74713;-91
2023/05/12 00:19:09;;;;;;;10.80;7.10;;;;;;;9.65;58.48;101365.60;108045;1257;72943;-89
2023/05/12 00:21:36;;;;;;;9.20;7.20;;;;;;;9.66;58.48;101362.46;108278;1257;64366;-91
2023/05/12 00:24:03;;;;;;;12.20;7.90;;;;;;;9.67;58.48;101360.79;108454;1257;59959;-89
2023/05/12 00:26:30;;;;;;;9.20;7.40;;;;;;;9.70;58.56;101359.36;108261;1257;73729;-91
2023/05/12 00:28:57;;;;;;;10.80;7.60;;;;;;;9.70;58.44;101361.61;108188;1257;72225;-91
2023/05/12 00:31:24;;;;;;;8.40;7.00;;;;;;;9.68;58.50;101361.32;108051;1257;70686;-90
2023/05/12 00:33:52;;;;;;;9.50;7.50;;;;;;;9.67;58.48;101366.45;107941;1260;60327;-91
2023/05/12 00:36:19;;;;;;;9.80;7.50;;;;;;;9.64;58.37;101366.02;107951;1257;60339;-91
2023/05/12 00:38:47;;;;;;;10.70;7.50;;;;;;;9.58;58.34;101365.86;107960;1257;76113;-91
2023/05/12 00:41:15;;;;;;;9.80;7.70;;;;;;;9.55;58.27;101364.73;107911;1257;74822;-91
2023/05/12 00:43:44;;;;;;;12.40;8.40;;;;;;;9.55;58.29;101362.98;107804;1257;72787;-90
2023/05/12 00:46:11;;;;;;;11.10;8.60;;;;;;;9.54;58.24;101365.04;107795;1260;60319;-91
2023/05/12 00:48:38;;;;;;;11.40;8.00;;;;;;;9.52;58.12;101365.77;107860;1257;60335;-90
2023/05/12 00:51:05;;;;;;;10.70;7.70;;;;;;;9.47;57.99;101366.77;107741;1257;72653;-91
2023/05/12 00:53:32;;;;;;;9.60;7.80;;;;;;;9.44;57.92;101370.39;107847;1257;74672;-90
2023/05/12 00:56:16;;;;;;;12.20;8.00;;;;;;;9.41;57.88;101369.79;107826;1257;73876;-91
2023/05/12 00:58:44;;;;;;;8.40;7.40;;;;;;;9.39;57.93;101369.89;107804;1260;61475;-91
2023/05/12 01:01:11;;;;;;;10.40;7.70;;;;;;;9.33;57.97;101371.77;107849;1257;60560;-91
2023/05/12 01:03:39;;;;;;;12.20;7.90;;;;;;;9.27;58.08;101374.92;107679;1257;76077;-91
2023/05/12 01:06:31;;;;;;;11.30;7.30;;;;;;;9.22;58.15;101377.35;107708;1257;71971;-91
2023/05/12 01:08:59;;;;;;;;;;;;;;;9.11;58.16;101374.58;107858;1257;71508;-91
2023/05/12 01:11:26;;;;;;;9.10;7.30;;;;;;;8.97;58.44;101377.35;107785;1257;60503;-91
2023/05/12 01:13:55;;;;;;;12.50;8.50;;;;;;;8.85;58.80;101380.31;107879;1259;60329;-92
2023/05/12 01:16:27;;;;;;;10.30;8.00;;;;;;;8.79;58.95;101382.11;107682;1257;74844;-91
2023/05/12 01:18:55;;;;;;;10.80;8.60;;;;;;;8.75;59.17;101383.71;107677;1259;72727;-90
2023/05/12 01:21:22;;;;;;;10.30;8.20;;;;;;;8.73;59.24;101381.73;107679;1259;72912;-91
2023/05/12 01:24:05;;;;;;;10.90;8.40;;;;;;;8.72;59.33;101377.54;107865;1257;61460;-92
2023/05/12 01:26:33;;;;;;;11.10;7.90;;;;;;;8.73;59.51;101379.20;107800;1258;61958;-91
2023/05/12 01:29:01;;;;;;;10.40;7.60;;;;;;;8.74;59.54;101380.70;107811;1257;72524;-91
2023/05/12 01:31:28;;;;;;;9.10;7.90;;;;;;;8.73;59.55;101384.84;107813;1259;73408;-91
2023/05/12 01:33:58;;;;;;;9.90;7.50;;;;;;;8.73;59.62;101389.37;107557;1259;72773;-92
2023/05/12 01:36:25;;;;;;;13.60;8.50;;;;;;;8.72;59.66;101389.90;107866;1257;63068;-91
2023/05/12 01:38:54;;;;;;;11.40;8.60;;;;;;;8.65;59.56;101388.79;107836;1257;60365;-92
2023/05/12 01:41:22;;;;;;;11.60;8.40;;;;;;;8.58;59.66;101385.77;107927;1257;76033;-93
2023/05/12 01:43:50;;;;;;;9.30;7.50;;;;;;;8.59;59.73;101386.48;107909;1257;74861;-92
2023/05/12 01:46:17;;;;;;;11.00;8.10;;;;;;;8.66;59.53;101381.52;107680;1260;72466;-92
2023/05/12 01:49:05;;;;;;;11.00;8.50;;;;;;;8.68;59.48;101382.20;107854;1257;61822;-92
2023/05/12 01:52:27;;;;;;;8.60;7.60;;;;;;;8.73;59.53;101384.73;107871;1257;61233;-91
2023/05/12 01:54:56;;;;;;;13.10;8.60;;;;;;;8.70;59.40;101384.10;107865;1257;73810;-91
2023/05/12 01:57:25;;;;;;;10.50;8.50;;;;;;;8.67;59.45;101383.23;107909;1257;74743;-92
2023/05/12 01:59:54;;;;;;;11.50;8.30;;;;;;;8.67;59.51;101387.45;108017;1256;71554;-93
2023/05/12 02:02:22;;;;;;;11.80;8.20;;;;;;;8.65;59.48;101385.85;107908;1256;60528;-91
2023/05/12 02:04:49;;;;;;;12.80;8.10;;;;;;;8.60;59.71;101384.70;107898;1262;60364;-93
2023/05/12 02:07:16;;;;;;;10.40;8.00;;;;;;;8.64;59.64;101388.05;107894;1257;72545;-92
2023/05/12 02:09:44;;;;;;;10.40;8.10;;;;;;;8.61;59.51;101386.17;107874;1257;74779;-91
2023/05/12 02:12:11;;;;;;;11.30;8.30;;;;;;;8.59;59.55;101385.19;107709;1259;72837;-91
2023/05/12 02:14:38;;;;;;;10.70;8.30;;;;;;;8.59;59.57;101388.84;107826;1257;61829;-91
2023/05/12 02:17:05;;;;;;;8.90;7.80;;;;;;;8.60;59.62;101389.17;107724;1257;60296;-91
2023/05/12 02:19:33;;;;;;;11.60;8.20;;;;;;;8.55;59.59;101389.40;107814;1260;73624;-91
2023/05/12 02:22:00;;;;;;;12.00;8.20;;;;;;;8.46;59.68;101388.60;107836;1257;74021;-91
2023/05/12 02:24:27;;;;;;;10.30;8.30;;;;;;;8.37;59.93;101393.27;107836;1259;72625;-95
2023/05/12 02:26:54;;;;;;;12.70;8.90;;;;;;;8.30;60.08;101395.55;107708;1257;61261;-91
2023/05/12 02:29:21;;;;;;;11.50;8.00;;;;;;;8.26;60.38;101389.90;107828;1259;59443;-92
2023/05/12 02:31:49;;;;;;;10.10;8.10;;;;;;;8.29;60.61;101389.58;107899;1258;75852;-91
2023/05/12 02:34:16;;;;;;;9.00;7.60;;;;;;;8.33;60.65;101393.88;107762;1257;72569;-92
2023/05/12 02:36:45;;;;;;;11.30;8.40;;;;;;;8.32;60.68;101393.96;107788;1257;74983;-92
2023/05/12 02:39:12;;;;;;;9.70;8.30;;;;;;;8.33;60.73;101392.41;107672;1260;60714;-91
2023/05/12 02:41:40;;;;;;;10.10;8.20;;;;;;;8.40;60.75;101391.79;107850;1258;61322;-91
2023/05/12 02:44:07;;;;;;;11.60;8.20;;;;;;;8.46;60.88;101392.01;107903;1257;74924;-91
2023/05/12 02:46:36;;;;;;;13.80;8.70;;;;;;;8.53;60.84;101390.29;107916;1257;72011;-92
2023/05/12 02:49:07;;;;;;;9.00;7.50;;;;;;;8.59;60.80;101388.61;107975;1260;71075;-91
2023/05/12 02:51:34;;;;;;;12.00;8.40;;;;;;;8.65;60.79;101392.52;107876;1259;62191;-92
2023/05/12 02:54:02;;;;;;;14.30;9.10;;;;;;;8.70;60.81;101391.64;107883;1259;60721;-91
2023/05/12 02:56:29;;;;;;;9.60;8.20;;;;;;;8.77;60.89;101392.14;107727;1261;74856;-92
2023/05/12 02:58:59;;;;;;;12.50;8.30;;;;;;;8.87;60.95;101393.32;107747;1259;71790;-91
2023/05/12 03:01:27;;;;;;;10.10;8.20;;;;;;;8.95;60.86;101389.45;107927;1257;72819;-91
2023/05/12 03:03:54;;;;;;;13.50;9.00;;;;;;;9.04;60.76;101389.19;107740;1257;63964;-92
2023/05/12 03:06:23;;;;;;;11.00;7.90;;;;;;;9.11;60.66;101389.83;107718;1257;60763;-92
2023/05/12 03:08:50;;;;;;;11.40;8.00;;;;;;;9.18;60.59;101388.13;107801;1257;73627;-92
2023/05/12 03:11:17;;;;;;;11.70;8.20;;;;;;;9.26;60.56;101393.02;107724;1257;73508;-92
2023/05/12 03:13:45;;;;;;;9.00;7.80;;;;;;;9.35;60.54;101390.48;107683;1257;73640;-92
2023/05/12 03:16:12;;;;;;;9.80;7.90;;;;;;;9.43;60.47;101393.30;107825;1259;62809;-92
2023/05/12 03:18:39;;;;;;;10.70;8.00;;;;;;;9.52;60.47;101394.90;107665;1258;60862;-91
2023/05/12 03:21:06;;;;;;;10.20;8.20;;;;;;;9.51;60.73;101405.38;107676;1259;74239;-91
2023/05/12 03:23:35;;;;;;;10.10;8.30;;;;;;;9.52;61.13;101404.45;107936;1258;75123;-91
2023/05/12 03:26:02;;;;;;;10.80;8.40;;;;;;;9.62;61.36;101411.41;107924;1257;74443;-91
2023/05/12 03:28:31;;;;;;;12.00;9.00;;;;;;;9.75;61.38;101414.55;107774;1259;63074;-92
2023/05/12 03:30:58;;;;;;;11.60;8.90;;;;;;;9.85;61.40;101407.81;107701;1256;60355;-90
2023/05/12 03:33:25;;;;;;;13.80;10.20;;;;;;;9.96;61.48;101410.58;107906;1256;72440;-92
2023/05/12 03:35:52;;;;;;;12.30;9.90;;;;;;;10.08;61.53;101412.02;107905;1257;72920;-91
2023/05/12 03:38:20;;;;;;;11.30;9.40;;;;;;;10.17;61.54;101417.02;107928;1259;73072;-93
2023/05/12 03:40:51;;;;;;;16.00;10.20;;;;;;;10.23;61.55;101422.72;107760;1263;63415;-91
2023/05/12 03:43:21;;;;;;;14.90;10.40;;;;;;;10.30;61.59;101419.05;107979;1258;60204;-90
2023/05/12 03:45:49;;;;;;;14.30;10.70;;;;;;;10.41;61.57;101418.69;107818;1264;73361;-92
2023/05/12 03:48:17;;;;;;;13.70;10.60;;;;;;;10.50;61.67;101419.11;108005;1257;72677;-92
2023/05/12 03:50:44;;;;;;;17.00;11.00;;;;;;;10.65;61.61;101414.44;107866;1263;75019;-92
2023/05/12 03:53:11;;;;;;;14.40;10.10;;;;;;;10.82;61.60;101415.20;107740;1257;61931;-91
2023/05/12 03:55:40;;;;;;;12.60;10.10;;;;;;;10.99;61.45;101417.47;108009;1257;60549;-92
2023/05/12 03:58:10;;;;;;;13.00;10.80;;;;;;;11.18;61.35;101418.39;107911;1257;75368;-93
2023/05/12 04:00:37;;;;;;;12.30;10.30;;;;;;;11.35;61.13;101417.46;107991;1257;74383;-92
2023/05/12 04:03:07;;;;;;;12.30;9.80;;;;;;;11.52;61.00;101408.30;107859;1257;73538;-92
2023/05/12 04:05:38;;;;;;;13.00;10.10;;;;;;;11.68;60.61;101410.06;107955;1257;60512;-93
2023/05/12 04:08:06;;;;;;;11.50;9.00;;;;;;;11.82;60.11;101405.02;107883;1258;61134;-92
2023/05/12 04:10:40;;;;;;;14.30;9.60;;;;;;;11.93;59.46;101406.46;107735;1257;74588;-92
2023/05/12 04:13:07;;;;;;;15.40;9.10;;;;;;;12.06;58.72;101409.54;107664;1259;75235;-91
2023/05/12 04:15:35;;;;;;;12.30;9.20;;;;;;;12.16;57.71;101404.80;107934;1257;72722;-91
2023/05/12 04:18:02;;;;;;;13.20;9.30;;;;;;;12.25;56.95;101406.13;107813;1258;64146;-91
2023/05/12 04:20:30;;;;;;;13.50;9.40;;;;;;;12.34;56.53;101409.62;107749;1259;60897;-92
2023/05/12 04:22:57;;;;;;;14.60;10.30;;;;;;;12.43;56.10;101412.89;107716;1257;74252;-92
2023/05/12 04:25:25;;;;;;;13.30;9.50;;;;;;;12.52;55.97;101416.60;107762;1257;73947;-91
2023/05/12 04:27:52;;;;;;;14.30;10.40;;;;;;;12.64;55.59;101417.07;107701;1259;70844;-92
2023/05/12 04:30:21;;;;;;;14.30;10.30;;;;;;;12.75;55.35;101421.16;107679;1258;62331;-91
2023/05/12 04:32:49;;;;;;;16.40;10.70;;;;;;;12.87;55.27;101422.70;107736;1257;60294;-90
2023/05/12 04:35:16;;;;;;;13.40;10.00;;;;;;;13.01;54.92;101421.84;107608;1257;75855;-92
2023/05/12 04:37:44;;;;;;;14.50;9.90;;;;;;;13.14;54.39;101420.96;107754;1259;74827;-92
2023/05/12 04:40:11;;;;;;;15.10;11.00;;;;;;;13.23;53.93;101423.95;107666;1257;74431;-90
2023/05/12 04:42:41;;;;;;;14.50;11.40;;;;;;;13.33;53.48;101423.74;107762;1257;61513;-91
2023/05/12 04:45:19;;;;;;;14.70;10.60;;;;;;;13.46;53.04;101424.13;107811;1257;61405;-91
2023/05/12 04:47:46;;;;;;;17.50;11.50;;;;;;;13.59;52.63;101423.55;107678;1257;72978;-91
2023/05/12 04:50:14;;;;;;;12.80;10.70;;;;;;;13.72;51.91;101424.79;107848;1257;72899;-89
2023/05/12 04:52:42;;;;;;;13.90;11.20;;;;;;;13.82;50.97;101420.35;107807;1257;74889;-92
2023/05/12 04:55:10;;;;;;;14.10;10.80;;;;;;;13.94;50.32;101422.15;107811;1257;61148;-91
2023/05/12 04:57:40;;;;;;;15.70;11.00;;;;;;;14.08;49.78;101419.08;107887;1258;61443;-92
2023/05/12 05:00:10;;;;;;;14.70;10.50;;;;;;;14.22;49.30;101416.73;107888;1258;76969;-91
2023/05/12 05:02:51;;;;;;;13.30;9.90;;;;;;;14.35;48.95;101417.56;107919;1257;73978;-92
2023/05/12 05:05:21;;;;;;;14.40;9.70;;;;;;;14.46;48.56;101414.34;107687;1257;70688;-91
2023/05/12 05:07:50;;;;;;;14.30;9.90;;;;;;;14.58;48.38;101416.16;107814;1258;61165;-90
2023/05/12 05:10:18;;;;;;;16.50;10.50;;;;;;;14.70;48.28;101420.55;108062;1257;59860;-92
2023/05/12 05:12:46;;;;;;;11.80;9.40;;;;;;;14.84;48.10;101420.23;108485;1257;74796;-92
2023/05/12 05:15:13;;;;;;;12.30;9.40;;;;;;;14.97;47.80;101420.00;109076;1257;73781;-93
2023/05/12 05:17:42;;;;;;;14.30;10.30;;;;;;;15.11;47.40;101422.67;108888;1259;73231;-93
2023/05/12 05:20:10;;;;;;;11.50;9.70;;;;;;;15.23;47.30;101424.89;108093;1257;61363;-91
2023/05/12 05:22:42;;;;;;;14.40;10.20;;;;;;;15.37;46.93;101423.63;107849;1257;62689;-91
2023/05/12 05:25:13;;;;;;;11.40;9.20;;;;;;;15.49;46.64;101426.02;108546;1257;75783;-91
2023/05/12 05:27:42;;;;;;;12.10;9.60;;;;;;;15.53;45.85;101424.77;108631;1257;73674;-92
2023/05/12 05:30:14;;;;;;;13.20;9.80;;;;;;;15.54;45.90;101423.96;108715;1258;73856;-91
2023/05/12 05:32:44;;;;;;;14.70;10.40;;;;;;;15.61;45.98;101424.88;108694;1257;61486;-92
2023/05/12 05:35:12;;;;;;;14.20;10.40;;;;;;;15.71;46.03;101424.14;107848;1257;60912;-93
2023/05/12 05:37:44;;;;;;;18.90;9.90;;;;;;;15.80;45.75;101421.51;107791;1257;74784;-91
2023/05/12 05:40:12;;;;;;;14.60;8.70;;;;;;;15.92;45.59;101419.61;107856;1257;71640;-92
2023/05/12 05:42:40;;;;;;;14.10;9.90;;;;;;;16.01;45.18;101421.22;107850;1257;72939;-91
2023/05/12 05:45:08;;;;;;;13.80;9.40;;;;;;;16.04;44.95;101416.09;107969;1257;61435;-91
2023/05/12 05:47:36;;;;;;;12.10;8.50;;;;;;;16.11;44.94;101419.90;107939;1258;61388;-91
2023/05/12 05:50:06;;;;;;;11.30;8.90;;;;;;;16.19;44.57;101418.21;107933;1258;76790;-92
2023/05/12 05:52:35;;;;;;;13.60;9.70;;;;;;;16.25;44.36;101420.73;107897;1259;74453;-91
2023/05/12 05:55:04;;;;;;;13.20;9.70;;;;;;;16.36;44.34;101420.54;107843;1258;75170;-91
2023/05/12 05:57:32;;;;;;;12.70;8.90;;;;;;;16.51;44.16;101421.67;107788;1257;61267;-92
2023/05/12 06:00:00;;;;;;;15.10;9.10;;;;;;;16.67;43.81;101418.96;107972;1259;60018;-90
2023/05/12 06:02:40;;;;;;;11.50;9.40;;;;;;;16.84;43.56;101423.34;107814;1259;75527;-92
2023/05/12 06:05:11;;;;;;;10.70;7.90;;;;;;;17.00;43.44;101420.12;107715;1259;73840;-91
2023/05/12 06:07:42;;;;;;;17.60;9.30;;;;;;;17.17;43.02;101419.59;107742;1257;72859;-92
2023/05/12 06:10:10;;;;;;;10.90;8.60;;;;;;;17.32;42.61;101417.91;107835;1257;61379;-91
2023/05/12 06:12:42;;;;;;;10.10;7.30;;;;;;;17.47;42.22;101418.84;107964;1257;61178;-92
2023/05/12 06:15:11;;;;;;;11.30;7.60;;;;;;;17.61;41.41;101417.21;107866;1258;76864;-92
2023/05/12 06:17:40;;;;;;;11.60;7.90;;;;;;;17.73;41.14;101418.79;107767;1257;73103;-93
2023/05/12 06:20:12;;;;;;;9.80;7.60;;;;;;;17.85;40.54;101416.55;107913;1257;73443;-92
2023/05/12 06:22:51;;;;;;;8.50;5.80;;;;;;;17.98;40.38;101419.39;108078;1257;61222;-92
2023/05/12 06:25:27;;;;;;;11.30;6.30;;;;;;;18.15;38.95;101417.05;107859;1257;60022;-91
2023/05/12 06:27:57;;;;;;;9.40;6.90;;;;;;;18.32;38.62;101416.86;107864;1262;75457;-92
2023/05/12 06:30:27;;;;;;;10.20;6.50;;;;;;;18.48;38.36;101416.25;107813;1257;71508;-91
2023/05/12 06:32:54;;;;;;;10.60;6.50;;;;;;;18.62;37.59;101416.36;107699;1257;72212;-92
2023/05/12 06:35:24;;;;;;;8.80;6.00;;;;;;;18.75;37.09;101416.42;107768;1257;61247;-92
2023/05/12 06:37:52;;;;;;;9.10;6.30;;;;;;;18.88;36.74;101418.74;107875;1257;61264;-91
2023/05/12 06:40:20;;;;;;;7.80;5.30;;;;;;;19.04;36.01;101416.69;107844;1257;73834;-92
2023/05/12 06:42:48;;;;;;;9.80;5.80;;;;;;;19.23;35.34;101415.59;107828;1257;74220;-93
2023/05/12 06:45:18;;;;;;;9.20;5.40;;;;;;;19.31;35.07;101417.32;107857;1257;71517;-93
2023/05/12 06:47:50;;;;;;;7.60;5.50;;;;;;;19.40;34.66;101412.14;107863;1257;62091;-90
2023/05/12 06:50:17;;;;;;;7.80;5.90;;;;;;;19.51;34.26;101414.95;107926;1264;61128;-90
2023/05/12 06:52:52;;;;;;;8.70;6.10;;;;;;;19.62;34.09;101415.75;107665;1257;76968;-93
2023/05/12 06:55:20;;;;;;;7.90;5.70;;;;;;;19.60;33.90;101415.98;107820;1257;73008;-90
2023/05/12 06:57:50;;;;;;;9.30;5.40;;;;;;;19.62;33.79;101417.58;107846;1259;71206;-91
2023/05/12 07:00:17;;;;;;;9.30;5.60;;;;;;;19.62;33.72;101413.61;107868;1260;61937;-91
2023/05/12 07:02:44;;;;;;;8.00;5.60;;;;;;;19.67;33.76;101414.54;108004;1257;61718;-91
2023/05/12 07:05:12;;;;;;;7.80;5.50;;;;;;;19.74;33.37;101415.34;107994;1257;76083;-91
2023/05/12 07:07:47;;;;;;;7.90;5.60;;;;;;;19.82;33.40;101413.15;107987;1257;72776;-90
2023/05/12 07:10:16;;;;;;;9.20;5.00;;;;;;;19.96;33.50;101413.81;107757;1258;74821;-89
2023/05/12 07:12:44;;;;;;;7.50;5.40;;;;;;;20.09;32.78;101412.42;107740;1257;61325;-90
2023/05/12 07:15:13;;;;;;;7.10;5.40;;;;;;;20.13;32.57;101410.67;107959;1257;60992;-90
2023/05/12 07:17:40;;;;;;;6.70;5.10;;;;;;;20.17;32.38;101413.10;107864;1257;74974;-90
2023/05/12 07:20:08;;;;;;;6.40;4.30;;;;;;;20.25;32.36;101412.30;108000;1257;74808;-91
2023/05/12 07:22:36;;;;;;;9.20;5.10;;;;;;;20.34;32.17;101411.84;107855;1258;74728;-92
2023/05/12 07:25:06;;;;;;;7.80;4.60;;;;;;;20.44;32.13;101406.00;107994;1260;62773;-91
2023/05/12 07:27:34;;;;;;;5.90;4.20;;;;;;;20.58;32.06;101410.21;107995;1257;61511;-92
2023/05/12 07:30:05;;;;;;;7.20;4.40;;;;;;;20.71;31.71;101408.92;107808;1258;74811;-91
2023/05/12 07:32:33;;;;;;;6.90;4.00;;;;;;;20.81;31.60;101411.62;107824;1257;74862;-91
2023/05/12 07:35:00;;;;;;;5.30;3.10;;;;;;;20.95;31.44;101407.05;107796;1257;72965;-90
2023/05/12 07:37:31;;;;;;;5.90;3.20;;;;;;;21.09;30.58;101408.08;107927;1260;61196;-91
2023/05/12 07:39:58;;;;;;;5.90;3.60;;;;;;;21.24;29.98;101404.98;107883;1257;62645;-93
2023/05/12 07:42:27;;;;;;;5.60;3.70;;;;;;;21.43;30.03;101403.29;107836;1257;76493;-91
2023/05/12 07:45:02;;;;;;;7.80;4.00;;;;;;;21.52;29.84;101410.04;107966;1257;74284;-92
2023/05/12 07:47:29;;;;;;;4.30;2.70;;;;;;;21.60;29.18;101409.13;107976;1257;73850;-92
2023/05/12 07:49:58;;;;;;;5.20;3.10;;;;;;;21.66;28.70;101410.60;108079;1257;61229;-93
2023/05/12 07:52:28;;;;;;;5.00;2.80;;;;;;;21.71;28.20;101405.59;108100;1257;62726;-93
2023/05/12 07:55:07;;;;;;;5.40;2.70;;;;;;;21.78;27.97;101403.23;108254;1257;77045;-93
2023/05/12 07:57:36;;;;;;;5.70;2.50;;;;;;;21.79;27.94;101403.73;108493;1257;73371;-93
2023/05/12 08:00:05;;;;;;;5.20;2.60;;;;;;;21.87;27.54;101400.67;108632;1257;73621;-94
2023/05/12 08:02:40;;;;;;;5.30;2.40;;;;;;;21.89;27.79;101394.73;109008;1257;61327;-92
2023/05/12 08:05:47;;;;;;;3.90;2.10;;;;;;;22.01;26.94;101393.79;108337;1257;61172;-91
2023/05/12 08:08:16;;;;;;;5.40;2.30;;;;;;;21.98;26.08;101397.27;108978;1257;74946;-89
2023/05/12 08:10:43;;;;;;;3.40;2.10;;;;;;;21.91;26.24;101400.02;108999;1258;71274;-87
2023/05/12 08:13:12;;;;;;;3.90;2.10;;;;;;;21.90;26.02;101397.69;109067;1257;72492;-92
2023/05/12 08:15:41;;;;;;;4.70;2.50;;;;;;;21.99;26.08;101397.08;108764;1258;61227;-90
2023/05/12 08:18:09;;;;;;;4.40;2.20;;;;;;;22.13;26.18;101392.44;107651;1258;59917;-91
2023/05/12 08:20:37;;;;;;;4.10;2.00;;;;;;;22.23;25.58;101391.81;107744;1265;74829;-91
2023/05/12 08:23:07;;;;;;;4.40;2.20;;;;;;;22.24;24.90;101391.61;107740;1259;71531;-91
2023/05/12 08:25:35;;;;;;;4.90;2.50;;;;;;;22.28;25.36;101389.72;107891;1259;70604;-92
2023/05/12 08:28:07;;;;;;;4.50;2.50;;;;;;;22.34;25.05;101391.29;107870;1259;61263;-90
2023/05/12 08:31:00;;;;;;;4.70;2.30;;;;;;;22.38;24.49;101389.09;107977;1259;59510;-93
2023/05/12 08:33:34;;;;;;;5.00;2.30;;;;;;;22.42;24.71;101384.52;107771;1259;76657;-92
2023/05/12 08:36:04;;;;;;;4.50;2.50;;;;;;;22.51;24.52;101382.13;107909;1258;73648;-92
2023/05/12 08:38:35;;;;;;;5.90;2.30;;;;;;;22.60;24.61;101381.27;107851;1259;74935;-92
2023/05/12 08:41:18;;;;;;;3.70;2.20;;;;;;;22.76;24.45;101385.20;107810;1259;61931;-91
2023/05/12 08:43:49;;;;;;;3.90;2.10;;;;;;;22.94;24.28;101381.07;107690;1258;62736;-93
2023/05/12 08:46:17;;;;;;;4.00;1.80;;;;;;;23.10;24.57;101377.41;107777;1258;75607;-93
2023/05/12 08:48:46;;;;;;;5.10;2.30;;;;;;;23.22;24.13;101381.55;107738;1259;73963;-92
2023/05/12 08:51:13;;;;;;;4.50;2.00;;;;;;;23.24;24.14;101379.63;107728;1258;72979;-90
2023/05/12 08:53:43;;;;;;;3.40;1.90;;;;;;;23.25;22.73;101379.27;107785;1258;61250;-90
2023/05/12 08:56:13;;;;;;;3.90;1.70;;;;;;;23.27;22.16;101380.36;107730;1258;61273;-91
2023/05/12 08:58:44;;;;;;;4.90;2.10;;;;;;;23.26;21.81;101376.90;107729;1259;75885;-91
2023/05/12 09:01:13;;;;;;;3.70;2.40;;;;;;;23.24;21.96;101372.55;107875;1259;75283;-92
2023/05/12 09:03:41;;;;;;;3.30;1.90;;;;;;;23.27;21.98;101373.71;107802;1259;73569;-91
2023/05/12 09:06:09;;;;;;;5.40;2.50;;;;;;;23.32;22.39;101370.25;107783;1259;61204;-93
2023/05/12 09:08:38;;;;;;;3.80;2.10;;;;;;;23.46;22.75;101369.48;107776;1264;61141;-91
2023/05/12 09:11:05;;;;;;;3.70;2.30;;;;;;;23.50;22.71;101368.44;107987;1257;74794;-89
2023/05/12 09:13:36;;;;;;;4.20;2.40;;;;;;;23.47;22.72;101368.45;107933;1257;74272;-91
2023/05/12 09:16:03;;;;;;;;;;;;;;;23.43;22.61;101369.77;108016;1257;70357;-92
2023/05/12 09:18:49;;;;;;;6.70;2.50;;;;;;;23.49;22.53;101369.38;108169;1257;61458;-94
2023/05/12 09:21:16;;;;;;;4.50;2.40;;;;;;;23.56;22.55;101367.31;107785;1257;61998;-91
2023/05/12 09:24:05;;;;;;;4.80;2.10;;;;;;;23.67;21.95;101365.23;107698;1257;75192;-91
2023/05/12 09:26:46;;;;;;;4.90;2.20;;;;;;;23.64;21.88;101362.95;108098;1259;72692;-91
2023/05/12 09:29:14;;;;;;;4.70;2.10;;;;;;;23.65;21.88;101359.64;107809;1259;72887;-92
2023/05/12 09:32:03;;;;;;;2.70;1.80;;;;;;;23.70;22.39;101360.62;107882;1258;62558;-92
2023/05/12 09:34:42;;;;;;;5.80;2.20;;;;;;;23.87;22.23;101356.27;107965;1259;61327;-92
2023/05/12 09:37:10;;;;;;;3.80;2.20;;;;;;;24.02;22.06;101356.73;107878;1257;73246;-90
2023/05/12 09:39:43;;;;;;;4.20;1.90;;;;;;;24.16;22.17;101356.56;107788;1257;71428;-91
2023/05/12 09:42:11;;;;;;;4.10;1.90;;;;;;;24.31;22.19;101351.02;107691;1259;73618;-92
2023/05/12 09:44:40;;;;;;;4.90;2.50;;;;;;;24.53;21.19;101346.73;107732;1258;62823;-87
2023/05/12 09:47:09;;;;;;;3.70;2.00;;;;;;;24.57;21.58;101348.11;107748;1257;61225;-92
2023/05/12 09:49:40;;;;;;;5.10;2.20;;;;;;;24.57;21.54;101345.74;107718;1258;75492;-90
2023/05/12 09:52:08;;;;;;;5.30;2.20;;;;;;;24.50;21.19;101344.89;107854;1257;71631;-92
2023/05/12 09:54:35;;;;;;;4.50;2.10;;;;;;;24.49;21.93;101348.36;107813;1257;73866;-92
2023/05/12 09:57:03;;;;;;;5.40;2.10;;;;;;;24.63;22.03;101341.33;107736;1257;61146;-91
2023/05/12 09:59:37;;;;;;;4.40;2.00;;;;;;;24.79;20.78;101332.93;107839;1257;61222;-91
2023/05/12 10:02:07;;;;;;;3.10;1.70;;;;;;;24.88;19.88;101330.30;107772;1259;74759;-90
2023/05/12 10:04:51;;;;;;;3.60;2.30;;;;;;;24.92;19.69;101328.13;107810;1258;75043;-92
2023/05/12 10:07:22;;;;;;;2.80;1.80;;;;;;;25.02;20.97;101324.27;107764;1257;72720;-91
2023/05/12 10:09:51;;;;;;;3.90;2.00;;;;;;;25.21;21.06;101326.83;107761;1266;61267;-92
2023/05/12 10:12:21;;;;;;;4.00;2.20;;;;;;;25.37;21.07;101326.81;107940;1257;62071;-90
2023/05/12 10:14:53;;;;;;;4.20;2.10;;;;;;;25.47;20.47;101325.45;107893;1259;75667;-90
2023/05/12 10:17:23;;;;;;;3.40;2.00;;;;;;;25.44;19.78;101326.98;108333;1258;75151;-92
2023/05/12 10:19:54;;;;;;;3.30;1.90;;;;;;;25.35;20.44;101322.94;108555;1257;73790;-90
2023/05/12 10:22:25;;;;;;;4.60;1.80;;;;;;;25.36;21.09;101322.41;108549;1258;61703;-92
2023/05/12 10:24:55;;;;;;;4.20;2.20;;;;;;;25.53;20.37;101322.77;108449;1259;61438;-92
2023/05/12 10:27:31;;;;;;;4.10;2.00;;;;;;;25.61;19.41;101322.21;108568;1258;75058;-92
2023/05/12 10:30:06;;;;;;;3.30;1.90;;;;;;;25.57;20.37;101314.98;108330;1259;73565;-91
2023/05/12 10:32:33;;;;;;;3.30;1.90;;;;;;;25.60;20.65;101317.11;108589;1259;74876;-91
2023/05/12 10:35:11;;;;;;;4.40;1.60;;;;;;;25.71;19.53;101313.25;108073;1259;61259;-92
2023/05/12 10:37:38;;;;;;;4.20;1.80;;;;;;;25.75;19.26;101312.77;107849;1259;62399;-92
2023/05/12 10:40:06;;;;;;;3.50;1.80;;;;;;;25.81;18.88;101310.40;108001;1259;73788;-91
2023/05/12 10:42:38;;;;;;;2.80;1.90;;;;;;;25.84;18.92;101308.56;107989;1259;74788;-94
2023/05/12 10:45:16;;;;;;;4.80;1.80;;;;;;;25.84;18.31;101308.14;107968;1259;72102;-89
2023/05/12 10:47:45;;;;;;;4.60;1.70;;;;;;;25.64;18.50;101304.41;107920;1258;60290;-91
2023/05/12 10:50:13;;;;;;;6.30;2.30;;;;;;;25.58;19.35;101301.77;107855;1259;62391;-90
2023/05/12 10:53:01;;;;;;;3.50;2.00;;;;;;;25.55;19.49;101301.30;107752;1260;73944;-90
2023/05/12 10:55:30;;;;;;;3.60;1.90;;;;;;;25.65;19.00;101298.84;107829;1258;74791;-90
2023/05/12 10:58:05;;;;;;;3.40;1.80;;;;;;;25.78;20.01;101291.60;107848;1258;72776;-90
2023/05/12 11:00:48;;;;;;;4.90;2.00;;;;;;;25.94;20.15;101292.69;107815;1259;60725;-91
2023/05/12 11:03:23;;;;;;;4.10;2.10;;;;;;;25.90;18.86;101292.86;107733;1258;59657;-93
2023/05/12 11:06:03;;;;;;;3.30;1.80;;;;;;;25.83;18.74;101288.90;107869;1257;75474;-91
2023/05/12 11:08:33;;;;;;;3.20;1.50;;;;;;;25.86;19.92;101286.80;107737;1257;73728;-91
2023/05/12 11:11:03;;;;;;;2.80;1.60;;;;;;;25.95;19.22;101282.69;107892;1258;71437;-93
2023/05/12 11:13:32;;;;;;;4.90;1.90;;;;;;;25.95;18.97;101280.27;107974;1259;264640;-92
2023/05/12 11:16:00;;;;;;;3.00;1.80;;;;;;;25.83;19.87;101288.58;107781;1257;62860;-90
2023/05/12 11:18:47;;;;;;;3.80;2.00;;;;;;;25.81;19.98;101288.58;107834;1260;74406;-93
2023/05/12 11:21:15;;;;;;;2.90;1.90;;;;;;;25.79;19.02;101290.83;107748;1261;74444;-93
2023/05/12 11:23:59;;;;;;;3.50;2.10;;;;;;;25.76;19.75;101284.23;107695;1262;73302;-91
2023/05/12 11:26:27;;;;;;;4.10;2.00;;;;;;;25.78;19.35;101287.05;107827;1262;62683;-91
2023/05/12 11:28:57;;;;;;;4.00;2.20;;;;;;;25.71;18.65;101284.66;107620;1262;61484;-91